W96 weather

New Kent County Airport
Quinton, Virginia, United States

Public forecast

Using degrees Fahrenheit for public forecast. Weather courtesy of forecast.io.

METAR (pilot weather report)

Retrieved UTC (0 seconds ago):

TAF (pilot weather forecast)

Closest forecast is Richmond International Airport, 9.3 nm (17.1 km) W. Retrieved 2019/05/23 06:30 UTC (3 hours ago):

TAF KRIC 230529Z 2306/2406 16004KT P6SM SCT250 FM230800 19005KT P6SM BKN080 FM231400 21009KT P6SM SCT250 FM231700 22010G18KT P6SM SCT060 FM232200 22008KT P6SM SCT060 BKN100